Ana Sayfa
METAR-TAF:

METAR-TAF

Havaalanları :

Manassas Regional Airport (Harry P. Davis Field)

Manassas, Virginia, Amerika Birleşik Devletleri

Enlem: 38-43N, Boylam: 077-31W, yükseklik: 59 m

Güncel hava durumu gözlemi

Rapor saat 08:56 UTC de 1 saat ve 6 dakika önce yapıldı.
Sakin rüzgar
Sıcaklık 7°C
Nem 76%
Basınç 1013 hPa
Görüş mesafesi: 16.1 km
10000 ft yükseklikte parçalı bulutlu

METAR: KHEF 220856Z AUTO 00000KT 10SM SCT100 07/03 A2992 RMK AO2 SLP137 T00670033 58019

Saat: 05:02 (10:02 UTC)


TAF: eksik

4.000'den fazla havaalanı için hava durumu gözlemleri ve tahminleri (METAR ve TAF raporları).

Kullanılabilir istasyonlar harita üzerinde sarı ve kırmızı noktalarla gösterilir.

İstasyonun adını görmek için fareyi noktanın üzerinde gezdirin.

Sonrasında hava gözlem ve tahminlerini görmek için tıklayın.

Haritayı değiştirmek için: yaklaştırmak için siyah artı işaretli yeşil düğmeye ve uzaklaştırmak için de eksi işaretli düğmeye hızla tıklayın; bitişik haritalar için yeşil okları kullanın.


METAR-TAF: